createdAt,value
2022-10-26T00:02:38.235Z,4.07
2022-10-26T00:08:14.663Z,3.50
2022-10-26T00:13:48.335Z,3.27
2022-10-26T00:19:13.389Z,3.37
2022-10-26T00:24:56.541Z,4.33
2022-10-26T00:30:19.798Z,3.50
2022-10-26T00:35:56.512Z,3.77
2022-10-26T00:41:25.014Z,3.47
2022-10-26T00:47:11.945Z,3.40
2022-10-26T00:52:36.760Z,3.27
2022-10-26T00:58:23.340Z,3.50
2022-10-26T01:03:58.846Z,3.53
2022-10-26T01:09:53.774Z,3.00
2022-10-26T01:15:21.282Z,3.47
2022-10-26T01:21:46.184Z,3.27
2022-10-26T01:27:26.056Z,3.50
2022-10-26T01:33:19.651Z,3.47
2022-10-26T01:38:56.497Z,3.80
2022-10-26T01:44:44.952Z,3.33
2022-10-26T01:56:25.581Z,3.60
2022-10-26T02:02:20.804Z,3.77
2022-10-26T02:07:58.631Z,3.80
2022-10-26T02:13:31.698Z,3.80
2022-10-26T02:19:04.406Z,3.70
2022-10-26T02:24:32.645Z,3.73
2022-10-26T02:30:00.586Z,3.70
2022-10-26T02:35:29.286Z,3.43
2022-10-26T02:40:59.081Z,3.23
2022-10-26T02:46:30.631Z,3.87
2022-10-26T02:52:10.694Z,3.60
2022-10-26T02:57:45.224Z,3.23
2022-10-26T03:03:27.468Z,3.57
2022-10-26T03:09:00.700Z,4.13
2022-10-26T03:14:42.987Z,3.60
2022-10-26T03:20:14.091Z,4.63
2022-10-26T03:26:05.272Z,3.73
2022-10-26T03:31:49.542Z,3.87
2022-10-26T03:37:16.667Z,4.17
2022-10-26T03:42:42.375Z,5.70
2022-10-26T03:48:08.632Z,4.80
2022-10-26T03:53:36.834Z,4.23
2022-10-26T03:59:00.583Z,4.03
2022-10-26T04:04:43.530Z,4.20
2022-10-26T04:10:23.295Z,4.10
2022-10-26T04:16:01.834Z,4.37
2022-10-26T04:21:29.417Z,4.33
2022-10-26T04:26:52.748Z,4.20
2022-10-26T04:32:19.464Z,3.80
2022-10-26T04:37:54.210Z,3.50
2022-10-26T04:43:29.646Z,3.90
2022-10-26T04:49:04.634Z,4.10
2022-10-26T04:54:33.540Z,4.07
2022-10-26T04:59:59.786Z,3.53
2022-10-26T05:05:34.765Z,3.17
2022-10-26T05:11:04.005Z,3.50
2022-10-26T05:16:29.299Z,4.00
2022-10-26T05:22:08.434Z,2.97
2022-10-26T05:27:35.515Z,3.40
2022-10-26T05:33:06.774Z,3.50
2022-10-26T05:38:33.775Z,2.87
2022-10-26T05:44:03.714Z,3.37
2022-10-26T05:49:57.801Z,3.20
2022-10-26T05:55:22.910Z,3.57
2022-10-26T06:01:03.137Z,4.50
2022-10-26T06:06:30.800Z,4.90
2022-10-26T06:12:00.840Z,3.40
2022-10-26T06:17:57.311Z,2.60
2022-10-26T06:24:01.089Z,3.03
2022-10-26T06:29:49.460Z,2.43
2022-10-26T06:35:30.479Z,2.20
2022-10-26T06:41:02.058Z,2.60
2022-10-26T06:46:34.081Z,2.20
2022-10-26T06:52:06.518Z,2.30
2022-10-26T06:57:48.585Z,1.93
2022-10-26T07:03:19.431Z,1.80
2022-10-26T07:08:44.243Z,2.10
2022-10-26T07:14:14.372Z,2.10
2022-10-26T07:19:39.241Z,1.90
2022-10-26T07:25:09.329Z,2.67
2022-10-26T07:30:43.494Z,2.75
2022-10-26T07:36:08.873Z,3.17
2022-10-26T07:41:34.692Z,3.00
2022-10-26T07:47:03.499Z,2.50
2022-10-26T07:52:35.625Z,1.77
2022-10-26T07:58:00.712Z,1.70
2022-10-26T08:03:25.746Z,1.60
2022-10-26T08:08:54.598Z,1.85
2022-10-26T08:14:30.189Z,1.92
2022-10-26T08:20:04.072Z,1.40
2022-10-26T08:25:35.100Z,1.98
2022-10-26T08:31:05.009Z,1.52
2022-10-26T08:36:34.538Z,2.42
2022-10-26T08:42:04.624Z,1.90
2022-10-26T08:47:33.039Z,1.63
2022-10-26T08:53:08.138Z,1.60
2022-10-26T08:58:39.352Z,1.52
2022-10-26T09:04:07.616Z,1.75
2022-10-26T09:09:54.133Z,1.98
2022-10-26T09:15:27.296Z,2.22
2022-10-26T09:20:59.424Z,1.92
2022-10-26T09:26:37.338Z,1.98
2022-10-26T09:32:06.667Z,1.88
2022-10-26T09:37:42.556Z,2.17
2022-10-26T09:43:30.246Z,2.08
2022-10-26T09:54:26.937Z,1.80
2022-10-26T10:00:04.940Z,1.85
2022-10-26T10:05:53.363Z,1.50
2022-10-26T10:11:19.759Z,1.33
2022-10-26T10:16:53.025Z,1.70
2022-10-26T10:22:25.297Z,1.50
2022-10-26T10:27:56.736Z,2.05
2022-10-26T10:33:42.193Z,1.80
2022-10-26T10:39:41.052Z,2.10
2022-10-26T10:45:08.028Z,1.60
2022-10-26T10:50:41.690Z,1.80
2022-10-26T10:56:30.052Z,1.88
2022-10-26T11:02:08.529Z,2.28
2022-10-26T11:07:57.995Z,1.85
2022-10-26T11:13:31.545Z,2.03
2022-10-26T11:19:00.835Z,1.70
2022-10-26T11:24:31.620Z,1.75
2022-10-26T11:30:06.762Z,1.70
2022-10-26T11:35:34.214Z,2.05
2022-10-26T11:41:20.829Z,1.65
2022-10-26T11:46:48.840Z,1.20
2022-10-26T11:52:56.775Z,1.52
2022-10-26T11:58:29.248Z,1.52
2022-10-26T12:03:58.878Z,1.45
2022-10-26T12:09:25.998Z,1.70
2022-10-26T12:15:04.201Z,1.70
2022-10-26T12:21:04.645Z,1.60
2022-10-26T12:27:00.217Z,1.40
2022-10-26T12:32:58.413Z,1.40
2022-10-26T12:39:03.042Z,1.08
2022-10-26T12:44:40.026Z,1.83
2022-10-26T12:50:27.869Z,1.55
2022-10-26T12:56:07.310Z,1.23
2022-10-26T13:01:47.112Z,1.50
2022-10-26T13:07:23.035Z,1.30
2022-10-26T13:12:57.256Z,1.20
2022-10-26T13:18:32.417Z,1.50
2022-10-26T13:24:08.964Z,1.35
2022-10-26T13:29:33.698Z,1.38
2022-10-26T13:35:00.990Z,1.67
2022-10-26T13:40:34.984Z,1.55
2022-10-26T13:46:03.286Z,1.38
2022-10-26T13:51:58.768Z,1.30
2022-10-26T13:57:35.714Z,1.45
2022-10-26T14:02:59.546Z,1.75
2022-10-26T14:08:33.971Z,1.30
2022-10-26T14:14:10.356Z,1.75
2022-10-26T14:19:35.573Z,1.70
2022-10-26T14:25:05.415Z,1.20
2022-10-26T14:30:32.731Z,1.75
2022-10-26T14:35:59.954Z,1.98
2022-10-26T14:41:27.622Z,1.27
2022-10-26T14:46:57.413Z,1.50
2022-10-26T14:52:28.919Z,1.52
2022-10-26T14:58:23.080Z,1.75
2022-10-26T15:03:56.538Z,1.88
2022-10-26T15:09:41.115Z,1.73
2022-10-26T15:15:25.876Z,1.70
2022-10-26T15:20:56.054Z,1.70
2022-10-26T15:26:19.822Z,2.13
2022-10-26T15:31:51.441Z,2.08
2022-10-26T15:37:18.365Z,2.17
2022-10-26T15:42:50.458Z,2.00
2022-10-26T15:48:32.740Z,1.98
2022-10-26T15:54:08.194Z,1.88
2022-10-26T15:59:36.812Z,1.88
2022-10-26T16:05:02.121Z,2.03
2022-10-26T16:10:51.614Z,2.13
2022-10-26T16:16:21.875Z,2.00
2022-10-26T16:21:46.849Z,2.40
2022-10-26T16:27:20.642Z,2.15
2022-10-26T16:32:45.615Z,2.40
2022-10-26T16:38:14.552Z,2.90
2022-10-26T16:43:42.310Z,2.30
2022-10-26T16:49:10.591Z,2.53
2022-10-26T16:54:49.600Z,2.30
2022-10-26T17:00:58.441Z,2.95
2022-10-26T17:06:52.785Z,2.85
2022-10-26T17:12:22.257Z,2.50
2022-10-26T17:17:55.455Z,2.85
2022-10-26T17:23:26.149Z,2.78
2022-10-26T17:28:59.784Z,3.40
2022-10-26T17:34:26.712Z,3.25
2022-10-26T17:39:55.528Z,3.47
2022-10-26T17:45:20.178Z,4.28
2022-10-26T17:50:48.684Z,4.82
2022-10-26T17:56:27.299Z,4.38
2022-10-26T18:01:52.830Z,5.18
2022-10-26T18:07:27.766Z,5.38
2022-10-26T18:12:57.425Z,4.95
2022-10-26T18:18:20.537Z,5.10
2022-10-26T18:23:47.248Z,6.60
2022-10-26T18:29:24.435Z,6.22
2022-10-26T18:34:55.211Z,6.57
2022-10-26T18:40:21.957Z,6.10
2022-10-26T18:45:49.432Z,4.78
2022-10-26T18:51:18.982Z,4.32
2022-10-26T18:56:47.999Z,4.43
2022-10-26T19:02:27.647Z,4.47
2022-10-26T19:07:50.681Z,5.60
2022-10-26T19:13:18.290Z,5.70
2022-10-26T19:18:48.783Z,6.05
2022-10-26T19:24:21.915Z,4.78
2022-10-26T19:29:49.949Z,4.80
2022-10-26T19:35:22.991Z,4.40
2022-10-26T19:41:06.433Z,4.00
2022-10-26T19:46:48.463Z,3.63
2022-10-26T19:52:15.238Z,4.75
2022-10-26T19:57:38.119Z,4.90
2022-10-26T20:03:03.016Z,4.32
2022-10-26T20:08:30.867Z,3.95
2022-10-26T20:14:08.712Z,4.43
2022-10-26T20:19:37.618Z,4.07
2022-10-26T20:25:02.522Z,4.50
2022-10-26T20:30:34.842Z,3.70
2022-10-26T20:36:15.028Z,4.47
2022-10-26T20:41:51.118Z,3.75
2022-10-26T20:47:22.135Z,4.25
2022-10-26T20:53:01.559Z,4.10
2022-10-26T20:58:46.266Z,6.00
2022-10-26T21:04:11.914Z,4.72
2022-10-26T21:09:40.091Z,4.63
2022-10-26T21:15:20.586Z,5.13
2022-10-26T21:20:43.468Z,5.25
2022-10-26T21:26:11.438Z,4.75
2022-10-26T21:31:49.568Z,4.90
2022-10-26T21:37:18.169Z,4.22
2022-10-26T21:42:46.406Z,4.70
2022-10-26T21:48:11.958Z,4.88
2022-10-26T21:53:35.086Z,4.68
2022-10-26T21:58:59.389Z,4.35
2022-10-26T22:04:28.496Z,4.75
2022-10-26T22:10:11.117Z,4.00
2022-10-26T22:15:35.096Z,4.50
2022-10-26T22:21:19.708Z,4.72
2022-10-26T22:26:46.373Z,5.20
2022-10-26T22:32:10.566Z,5.03
2022-10-26T22:37:39.886Z,4.68
2022-10-26T22:43:09.521Z,4.00
2022-10-26T22:48:45.599Z,3.70
2022-10-26T22:54:18.018Z,4.00
2022-10-26T22:59:40.656Z,3.72
2022-10-26T23:05:04.433Z,4.03
2022-10-26T23:10:31.322Z,3.20
2022-10-26T23:16:05.574Z,3.92
2022-10-26T23:21:36.523Z,4.00
2022-10-26T23:27:14.987Z,4.20
2022-10-26T23:33:03.627Z,3.78
2022-10-26T23:38:29.552Z,3.72
2022-10-26T23:44:04.733Z,4.15
2022-10-26T23:49:41.588Z,3.55
2022-10-26T23:55:05.013Z,3.97
